sensor_id;sensor_type;location;lat;lon;timestamp;P1;durP1;ratioP1;P2;durP2;ratioP2
18170;SDS011;9210;48.358;10.902;2022-09-17T00:01:19;4.90;;;1.60;;
18170;SDS011;9210;48.358;10.902;2022-09-17T00:03:49;2.10;;;1.47;;
18170;SDS011;9210;48.358;10.902;2022-09-17T00:06:21;5.23;;;1.80;;
18170;SDS011;9210;48.358;10.902;2022-09-17T00:08:49;5.53;;;1.70;;
18170;SDS011;9210;48.358;10.902;2022-09-17T00:11:19;3.60;;;1.70;;
18170;SDS011;9210;48.358;10.902;2022-09-17T00:13:48;2.03;;;1.47;;
18170;SDS011;9210;48.358;10.902;2022-09-17T00:16:24;3.10;;;1.37;;
18170;SDS011;9210;48.358;10.902;2022-09-17T00:18:53;2.00;;;1.80;;
18170;SDS011;9210;48.358;10.902;2022-09-17T00:21:24;2.63;;;1.40;;
18170;SDS011;9210;48.358;10.902;2022-09-17T00:23:53;3.00;;;1.57;;
18170;SDS011;9210;48.358;10.902;2022-09-17T00:26:22;3.67;;;1.40;;
18170;SDS011;9210;48.358;10.902;2022-09-17T00:28:51;2.53;;;1.30;;
18170;SDS011;9210;48.358;10.902;2022-09-17T00:31:20;3.30;;;1.63;;
18170;SDS011;9210;48.358;10.902;2022-09-17T00:33:49;2.57;;;1.30;;
18170;SDS011;9210;48.358;10.902;2022-09-17T00:36:17;2.07;;;1.40;;
18170;SDS011;9210;48.358;10.902;2022-09-17T00:38:48;2.33;;;1.20;;
18170;SDS011;9210;48.358;10.902;2022-09-17T00:41:17;3.23;;;1.50;;
18170;SDS011;9210;48.358;10.902;2022-09-17T00:43:47;2.13;;;1.30;;
18170;SDS011;9210;48.358;10.902;2022-09-17T00:46:28;2.77;;;1.40;;
18170;SDS011;9210;48.358;10.902;2022-09-17T00:48:58;4.63;;;1.67;;
18170;SDS011;9210;48.358;10.902;2022-09-17T00:51:30;1.70;;;1.10;;
18170;SDS011;9210;48.358;10.902;2022-09-17T00:54:02;3.10;;;1.37;;
18170;SDS011;9210;48.358;10.902;2022-09-17T00:56:31;2.10;;;1.40;;
18170;SDS011;9210;48.358;10.902;2022-09-17T00:59:01;2.50;;;1.40;;
18170;SDS011;9210;48.358;10.902;2022-09-17T01:01:30;2.20;;;1.40;;
18170;SDS011;9210;48.358;10.902;2022-09-17T01:03:58;5.27;;;1.43;;
18170;SDS011;9210;48.358;10.902;2022-09-17T01:06:29;3.13;;;1.50;;
18170;SDS011;9210;48.358;10.902;2022-09-17T01:09:07;2.83;;;1.43;;
18170;SDS011;9210;48.358;10.902;2022-09-17T01:11:42;3.63;;;1.40;;
18170;SDS011;9210;48.358;10.902;2022-09-17T01:14:16;4.63;;;1.63;;
18170;SDS011;9210;48.358;10.902;2022-09-17T01:16:47;2.13;;;1.20;;
18170;SDS011;9210;48.358;10.902;2022-09-17T01:19:29;2.77;;;1.43;;
18170;SDS011;9210;48.358;10.902;2022-09-17T01:22:04;2.17;;;1.40;;
18170;SDS011;9210;48.358;10.902;2022-09-17T01:30:17;2.27;;;1.40;;
18170;SDS011;9210;48.358;10.902;2022-09-17T01:32:50;2.70;;;1.40;;
18170;SDS011;9210;48.358;10.902;2022-09-17T01:35:22;2.43;;;1.47;;
18170;SDS011;9210;48.358;10.902;2022-09-17T01:37:56;2.70;;;1.30;;
18170;SDS011;9210;48.358;10.902;2022-09-17T01:40:27;3.70;;;1.50;;
18170;SDS011;9210;48.358;10.902;2022-09-17T01:43:00;4.80;;;1.30;;
18170;SDS011;9210;48.358;10.902;2022-09-17T01:45:33;1.60;;;1.20;;
18170;SDS011;9210;48.358;10.902;2022-09-17T01:48:08;2.20;;;1.20;;
18170;SDS011;9210;48.358;10.902;2022-09-17T01:50:41;2.10;;;1.30;;
18170;SDS011;9210;48.358;10.902;2022-09-17T01:53:12;3.13;;;1.40;;
18170;SDS011;9210;48.358;10.902;2022-09-17T01:55:42;3.83;;;1.40;;
18170;SDS011;9210;48.358;10.902;2022-09-17T01:58:12;4.27;;;1.10;;
18170;SDS011;9210;48.358;10.902;2022-09-17T02:00:41;1.57;;;1.00;;
18170;SDS011;9210;48.358;10.902;2022-09-17T02:03:15;3.30;;;1.47;;
18170;SDS011;9210;48.358;10.902;2022-09-17T02:05:45;1.80;;;1.37;;
18170;SDS011;9210;48.358;10.902;2022-09-17T02:08:17;3.07;;;1.50;;
18170;SDS011;9210;48.358;10.902;2022-09-17T02:10:47;3.50;;;1.50;;
18170;SDS011;9210;48.358;10.902;2022-09-17T02:13:18;1.60;;;1.10;;
18170;SDS011;9210;48.358;10.902;2022-09-17T02:15:48;5.03;;;1.50;;
18170;SDS011;9210;48.358;10.902;2022-09-17T02:18:23;3.03;;;1.67;;
18170;SDS011;9210;48.358;10.902;2022-09-17T02:20:53;3.10;;;1.57;;
18170;SDS011;9210;48.358;10.902;2022-09-17T02:23:23;3.43;;;1.60;;
18170;SDS011;9210;48.358;10.902;2022-09-17T02:25:56;2.67;;;1.50;;
18170;SDS011;9210;48.358;10.902;2022-09-17T02:28:26;3.20;;;1.20;;
18170;SDS011;9210;48.358;10.902;2022-09-17T02:30:59;2.97;;;1.30;;
18170;SDS011;9210;48.358;10.902;2022-09-17T02:33:29;4.00;;;1.30;;
18170;SDS011;9210;48.358;10.902;2022-09-17T02:36:00;2.07;;;1.23;;
18170;SDS011;9210;48.358;10.902;2022-09-17T02:38:29;3.30;;;1.40;;
18170;SDS011;9210;48.358;10.902;2022-09-17T02:40:59;5.17;;;1.53;;
18170;SDS011;9210;48.358;10.902;2022-09-17T02:43:31;1.93;;;1.30;;
18170;SDS011;9210;48.358;10.902;2022-09-17T02:46:06;2.60;;;1.50;;
18170;SDS011;9210;48.358;10.902;2022-09-17T02:48:44;3.23;;;1.47;;
18170;SDS011;9210;48.358;10.902;2022-09-17T02:51:19;2.73;;;1.30;;
18170;SDS011;9210;48.358;10.902;2022-09-17T02:53:54;2.27;;;1.30;;
18170;SDS011;9210;48.358;10.902;2022-09-17T02:56:26;3.07;;;1.43;;
18170;SDS011;9210;48.358;10.902;2022-09-17T02:59:00;1.80;;;1.10;;
18170;SDS011;9210;48.358;10.902;2022-09-17T03:01:32;4.87;;;1.53;;
18170;SDS011;9210;48.358;10.902;2022-09-17T03:04:02;2.50;;;1.10;;
18170;SDS011;9210;48.358;10.902;2022-09-17T03:06:33;2.40;;;1.47;;
18170;SDS011;9210;48.358;10.902;2022-09-17T03:09:01;2.03;;;1.33;;
18170;SDS011;9210;48.358;10.902;2022-09-17T03:11:30;3.93;;;1.80;;
18170;SDS011;9210;48.358;10.902;2022-09-17T03:13:59;3.07;;;1.70;;
18170;SDS011;9210;48.358;10.902;2022-09-17T03:16:27;3.97;;;1.60;;
18170;SDS011;9210;48.358;10.902;2022-09-17T03:18:55;4.73;;;1.50;;
18170;SDS011;9210;48.358;10.902;2022-09-17T03:21:25;5.03;;;1.50;;
18170;SDS011;9210;48.358;10.902;2022-09-17T03:23:54;2.57;;;1.30;;
18170;SDS011;9210;48.358;10.902;2022-09-17T03:26:22;2.57;;;1.47;;
18170;SDS011;9210;48.358;10.902;2022-09-17T03:28:53;2.87;;;1.20;;
18170;SDS011;9210;48.358;10.902;2022-09-17T03:31:21;4.67;;;1.70;;
18170;SDS011;9210;48.358;10.902;2022-09-17T03:33:49;1.60;;;1.27;;
18170;SDS011;9210;48.358;10.902;2022-09-17T03:36:20;4.93;;;1.53;;
18170;SDS011;9210;48.358;10.902;2022-09-17T03:38:51;3.93;;;1.37;;
18170;SDS011;9210;48.358;10.902;2022-09-17T03:41:20;2.37;;;1.73;;
18170;SDS011;9210;48.358;10.902;2022-09-17T03:43:51;4.50;;;1.53;;
18170;SDS011;9210;48.358;10.902;2022-09-17T03:46:22;2.77;;;1.50;;
18170;SDS011;9210;48.358;10.902;2022-09-17T03:48:50;2.37;;;1.33;;
18170;SDS011;9210;48.358;10.902;2022-09-17T03:51:19;4.33;;;1.50;;
18170;SDS011;9210;48.358;10.902;2022-09-17T03:53:47;3.77;;;2.10;;
18170;SDS011;9210;48.358;10.902;2022-09-17T03:56:17;3.67;;;1.40;;
18170;SDS011;9210;48.358;10.902;2022-09-17T03:58:45;2.90;;;1.40;;
18170;SDS011;9210;48.358;10.902;2022-09-17T04:01:14;4.60;;;1.30;;
18170;SDS011;9210;48.358;10.902;2022-09-17T04:03:42;1.47;;;1.20;;
18170;SDS011;9210;48.358;10.902;2022-09-17T04:06:11;3.70;;;1.37;;
18170;SDS011;9210;48.358;10.902;2022-09-17T04:08:39;1.70;;;1.13;;
18170;SDS011;9210;48.358;10.902;2022-09-17T04:11:08;7.10;;;1.60;;
18170;SDS011;9210;48.358;10.902;2022-09-17T04:13:38;3.40;;;1.33;;
18170;SDS011;9210;48.358;10.902;2022-09-17T04:16:07;2.70;;;1.53;;
18170;SDS011;9210;48.358;10.902;2022-09-17T04:18:35;4.77;;;1.40;;
18170;SDS011;9210;48.358;10.902;2022-09-17T04:21:04;4.03;;;1.60;;
18170;SDS011;9210;48.358;10.902;2022-09-17T04:23:32;4.57;;;1.40;;
18170;SDS011;9210;48.358;10.902;2022-09-17T04:26:04;5.20;;;1.60;;
18170;SDS011;9210;48.358;10.902;2022-09-17T04:28:35;6.47;;;1.57;;
18170;SDS011;9210;48.358;10.902;2022-09-17T04:31:05;6.23;;;1.83;;
18170;SDS011;9210;48.358;10.902;2022-09-17T04:33:33;3.80;;;1.63;;
18170;SDS011;9210;48.358;10.902;2022-09-17T04:36:03;4.77;;;1.63;;
18170;SDS011;9210;48.358;10.902;2022-09-17T04:38:31;3.40;;;1.40;;
18170;SDS011;9210;48.358;10.902;2022-09-17T04:41:00;6.90;;;1.80;;
18170;SDS011;9210;48.358;10.902;2022-09-17T04:43:28;5.17;;;1.90;;
18170;SDS011;9210;48.358;10.902;2022-09-17T04:45:56;9.10;;;1.80;;
18170;SDS011;9210;48.358;10.902;2022-09-17T04:48:26;3.97;;;1.70;;
18170;SDS011;9210;48.358;10.902;2022-09-17T04:50:54;4.60;;;1.70;;
18170;SDS011;9210;48.358;10.902;2022-09-17T04:53:23;4.90;;;1.90;;
18170;SDS011;9210;48.358;10.902;2022-09-17T04:55:51;4.07;;;1.70;;
18170;SDS011;9210;48.358;10.902;2022-09-17T04:58:20;2.00;;;1.47;;
18170;SDS011;9210;48.358;10.902;2022-09-17T05:00:48;4.30;;;1.37;;
18170;SDS011;9210;48.358;10.902;2022-09-17T05:03:17;3.70;;;1.90;;
18170;SDS011;9210;48.358;10.902;2022-09-17T05:05:47;5.33;;;2.13;;
18170;SDS011;9210;48.358;10.902;2022-09-17T05:08:15;4.57;;;1.80;;
18170;SDS011;9210;48.358;10.902;2022-09-17T05:10:44;6.50;;;1.90;;
18170;SDS011;9210;48.358;10.902;2022-09-17T05:13:12;4.40;;;1.97;;
18170;SDS011;9210;48.358;10.902;2022-09-17T05:15:40;8.90;;;2.10;;
18170;SDS011;9210;48.358;10.902;2022-09-17T05:18:12;5.10;;;1.90;;
18170;SDS011;9210;48.358;10.902;2022-09-17T05:20:41;4.83;;;1.90;;
18170;SDS011;9210;48.358;10.902;2022-09-17T05:23:11;3.73;;;1.93;;
18170;SDS011;9210;48.358;10.902;2022-09-17T05:25:39;6.87;;;2.03;;
18170;SDS011;9210;48.358;10.902;2022-09-17T05:28:08;6.90;;;2.20;;
18170;SDS011;9210;48.358;10.902;2022-09-17T05:30:36;7.77;;;2.23;;
18170;SDS011;9210;48.358;10.902;2022-09-17T05:33:05;7.37;;;1.80;;
18170;SDS011;9210;48.358;10.902;2022-09-17T05:35:33;5.00;;;1.67;;
18170;SDS011;9210;48.358;10.902;2022-09-17T05:38:02;8.00;;;1.80;;
18170;SDS011;9210;48.358;10.902;2022-09-17T05:40:33;5.50;;;1.70;;
18170;SDS011;9210;48.358;10.902;2022-09-17T05:43:03;9.00;;;1.80;;
18170;SDS011;9210;48.358;10.902;2022-09-17T05:45:32;5.23;;;1.43;;
18170;SDS011;9210;48.358;10.902;2022-09-17T05:48:01;10.43;;;2.00;;
18170;SDS011;9210;48.358;10.902;2022-09-17T05:50:30;5.47;;;1.50;;
18170;SDS011;9210;48.358;10.902;2022-09-17T05:53:02;4.43;;;1.47;;
18170;SDS011;9210;48.358;10.902;2022-09-17T05:55:32;3.97;;;1.77;;
18170;SDS011;9210;48.358;10.902;2022-09-17T05:58:07;5.87;;;1.40;;
18170;SDS011;9210;48.358;10.902;2022-09-17T06:00:36;6.00;;;1.87;;
18170;SDS011;9210;48.358;10.902;2022-09-17T06:03:04;9.43;;;1.57;;
18170;SDS011;9210;48.358;10.902;2022-09-17T06:05:33;8.60;;;2.03;;
18170;SDS011;9210;48.358;10.902;2022-09-17T06:08:01;7.30;;;1.43;;
18170;SDS011;9210;48.358;10.902;2022-09-17T06:10:30;4.73;;;1.57;;
18170;SDS011;9210;48.358;10.902;2022-09-17T06:13:03;6.17;;;1.50;;
18170;SDS011;9210;48.358;10.902;2022-09-17T06:15:32;5.67;;;1.80;;
18170;SDS011;9210;48.358;10.902;2022-09-17T06:18:00;3.60;;;1.40;;
18170;SDS011;9210;48.358;10.902;2022-09-17T06:20:28;6.10;;;1.70;;
18170;SDS011;9210;48.358;10.902;2022-09-17T06:22:57;7.03;;;1.47;;
18170;SDS011;9210;48.358;10.902;2022-09-17T06:25:25;8.50;;;1.73;;
18170;SDS011;9210;48.358;10.902;2022-09-17T06:27:54;6.37;;;1.70;;
18170;SDS011;9210;48.358;10.902;2022-09-17T06:30:24;9.80;;;1.80;;
18170;SDS011;9210;48.358;10.902;2022-09-17T06:32:53;8.87;;;2.03;;
18170;SDS011;9210;48.358;10.902;2022-09-17T06:35:21;6.87;;;2.03;;
18170;SDS011;9210;48.358;10.902;2022-09-17T06:37:49;7.20;;;1.80;;
18170;SDS011;9210;48.358;10.902;2022-09-17T06:40:18;8.37;;;1.97;;
18170;SDS011;9210;48.358;10.902;2022-09-17T06:42:49;5.40;;;1.60;;
18170;SDS011;9210;48.358;10.902;2022-09-17T06:45:17;5.23;;;1.50;;
18170;SDS011;9210;48.358;10.902;2022-09-17T06:47:47;4.03;;;1.60;;
18170;SDS011;9210;48.358;10.902;2022-09-17T06:50:15;10.03;;;1.80;;
18170;SDS011;9210;48.358;10.902;2022-09-17T06:52:46;10.17;;;1.90;;
18170;SDS011;9210;48.358;10.902;2022-09-17T06:55:15;10.90;;;2.00;;
18170;SDS011;9210;48.358;10.902;2022-09-17T06:57:44;11.27;;;1.90;;
18170;SDS011;9210;48.358;10.902;2022-09-17T07:00:13;8.73;;;1.63;;
18170;SDS011;9210;48.358;10.902;2022-09-17T07:02:41;5.30;;;1.43;;
18170;SDS011;9210;48.358;10.902;2022-09-17T07:05:11;9.47;;;1.90;;
18170;SDS011;9210;48.358;10.902;2022-09-17T07:07:39;5.67;;;1.67;;
18170;SDS011;9210;48.358;10.902;2022-09-17T07:10:08;4.10;;;1.37;;
18170;SDS011;9210;48.358;10.902;2022-09-17T07:12:38;8.10;;;2.17;;
18170;SDS011;9210;48.358;10.902;2022-09-17T07:15:13;10.10;;;1.77;;
18170;SDS011;9210;48.358;10.902;2022-09-17T07:17:41;10.37;;;1.90;;
18170;SDS011;9210;48.358;10.902;2022-09-17T07:20:11;6.77;;;1.60;;
18170;SDS011;9210;48.358;10.902;2022-09-17T07:22:40;8.67;;;1.60;;
18170;SDS011;9210;48.358;10.902;2022-09-17T07:25:09;8.93;;;1.60;;
18170;SDS011;9210;48.358;10.902;2022-09-17T07:27:37;11.40;;;2.17;;
18170;SDS011;9210;48.358;10.902;2022-09-17T07:30:06;11.43;;;1.80;;
18170;SDS011;9210;48.358;10.902;2022-09-17T07:32:34;7.83;;;1.43;;
18170;SDS011;9210;48.358;10.902;2022-09-17T07:35:03;7.80;;;1.83;;
18170;SDS011;9210;48.358;10.902;2022-09-17T07:37:33;8.30;;;1.60;;
18170;SDS011;9210;48.358;10.902;2022-09-17T07:40:02;6.47;;;1.73;;
18170;SDS011;9210;48.358;10.902;2022-09-17T07:42:31;12.70;;;2.13;;
18170;SDS011;9210;48.358;10.902;2022-09-17T07:44:59;9.77;;;1.63;;
18170;SDS011;9210;48.358;10.902;2022-09-17T07:47:28;7.00;;;1.93;;
18170;SDS011;9210;48.358;10.902;2022-09-17T07:49:56;8.30;;;1.70;;
18170;SDS011;9210;48.358;10.902;2022-09-17T07:52:25;6.20;;;1.50;;
18170;SDS011;9210;48.358;10.902;2022-09-17T07:54:55;11.63;;;1.97;;
18170;SDS011;9210;48.358;10.902;2022-09-17T07:57:24;9.17;;;1.83;;
18170;SDS011;9210;48.358;10.902;2022-09-17T07:59:52;5.40;;;1.47;;
18170;SDS011;9210;48.358;10.902;2022-09-17T08:02:21;9.07;;;1.70;;
18170;SDS011;9210;48.358;10.902;2022-09-17T08:04:50;9.70;;;1.50;;
18170;SDS011;9210;48.358;10.902;2022-09-17T08:07:18;4.13;;;1.37;;
18170;SDS011;9210;48.358;10.902;2022-09-17T08:09:46;11.67;;;1.70;;
18170;SDS011;9210;48.358;10.902;2022-09-17T08:12:16;10.73;;;1.83;;
18170;SDS011;9210;48.358;10.902;2022-09-17T08:14:45;5.57;;;1.50;;
18170;SDS011;9210;48.358;10.902;2022-09-17T08:17:16;4.73;;;1.60;;
18170;SDS011;9210;48.358;10.902;2022-09-17T08:19:45;9.27;;;1.70;;
18170;SDS011;9210;48.358;10.902;2022-09-17T08:22:13;7.73;;;1.60;;
18170;SDS011;9210;48.358;10.902;2022-09-17T08:24:42;7.80;;;1.50;;
18170;SDS011;9210;48.358;10.902;2022-09-17T08:27:10;4.53;;;2.00;;
18170;SDS011;9210;48.358;10.902;2022-09-17T08:29:41;4.43;;;1.50;;
18170;SDS011;9210;48.358;10.902;2022-09-17T08:32:09;6.87;;;1.70;;
18170;SDS011;9210;48.358;10.902;2022-09-17T08:34:38;7.57;;;1.80;;
18170;SDS011;9210;48.358;10.902;2022-09-17T08:37:06;6.37;;;1.63;;
18170;SDS011;9210;48.358;10.902;2022-09-17T08:39:37;9.27;;;1.90;;
18170;SDS011;9210;48.358;10.902;2022-09-17T08:42:07;7.10;;;1.80;;
18170;SDS011;9210;48.358;10.902;2022-09-17T08:44:38;6.70;;;1.73;;
18170;SDS011;9210;48.358;10.902;2022-09-17T08:47:11;7.33;;;1.47;;
18170;SDS011;9210;48.358;10.902;2022-09-17T08:49:40;6.83;;;1.80;;
18170;SDS011;9210;48.358;10.902;2022-09-17T08:55:12;5.00;;;1.37;;
18170;SDS011;9210;48.358;10.902;2022-09-17T08:57:45;8.83;;;1.43;;
18170;SDS011;9210;48.358;10.902;2022-09-17T09:00:17;7.07;;;1.47;;
18170;SDS011;9210;48.358;10.902;2022-09-17T09:02:55;5.30;;;1.30;;
18170;SDS011;9210;48.358;10.902;2022-09-17T09:05:28;6.40;;;1.77;;
18170;SDS011;9210;48.358;10.902;2022-09-17T09:08:01;8.47;;;1.60;;
18170;SDS011;9210;48.358;10.902;2022-09-17T09:10:32;9.67;;;1.67;;
18170;SDS011;9210;48.358;10.902;2022-09-17T09:13:03;5.80;;;1.70;;
18170;SDS011;9210;48.358;10.902;2022-09-17T09:15:34;8.23;;;1.60;;
18170;SDS011;9210;48.358;10.902;2022-09-17T09:18:08;9.77;;;1.80;;
18170;SDS011;9210;48.358;10.902;2022-09-17T09:20:41;5.47;;;1.60;;
18170;SDS011;9210;48.358;10.902;2022-09-17T09:23:12;9.00;;;1.70;;
18170;SDS011;9210;48.358;10.902;2022-09-17T09:25:51;6.63;;;1.50;;
18170;SDS011;9210;48.358;10.902;2022-09-17T09:31:26;8.07;;;1.63;;
18170;SDS011;9210;48.358;10.902;2022-09-17T09:33:59;10.27;;;1.87;;
18170;SDS011;9210;48.358;10.902;2022-09-17T09:36:29;9.57;;;1.73;;
18170;SDS011;9210;48.358;10.902;2022-09-17T09:39:00;6.27;;;1.80;;
18170;SDS011;9210;48.358;10.902;2022-09-17T09:41:30;9.20;;;1.67;;
18170;SDS011;9210;48.358;10.902;2022-09-17T09:44:02;5.10;;;1.50;;
18170;SDS011;9210;48.358;10.902;2022-09-17T09:46:37;8.07;;;1.80;;
18170;SDS011;9210;48.358;10.902;2022-09-17T09:49:12;7.83;;;2.03;;
18170;SDS011;9210;48.358;10.902;2022-09-17T09:51:44;7.53;;;1.63;;
18170;SDS011;9210;48.358;10.902;2022-09-17T09:54:19;8.63;;;2.00;;
18170;SDS011;9210;48.358;10.902;2022-09-17T09:56:54;7.63;;;1.77;;
18170;SDS011;9210;48.358;10.902;2022-09-17T09:59:23;6.63;;;1.97;;
18170;SDS011;9210;48.358;10.902;2022-09-17T10:01:52;6.67;;;2.23;;
18170;SDS011;9210;48.358;10.902;2022-09-17T10:04:29;8.23;;;2.00;;
18170;SDS011;9210;48.358;10.902;2022-09-17T10:06:59;8.03;;;2.23;;
18170;SDS011;9210;48.358;10.902;2022-09-17T10:09:29;6.67;;;1.70;;
18170;SDS011;9210;48.358;10.902;2022-09-17T10:12:03;6.43;;;1.73;;
18170;SDS011;9210;48.358;10.902;2022-09-17T10:14:32;6.33;;;1.40;;
18170;SDS011;9210;48.358;10.902;2022-09-17T10:22:37;5.87;;;1.27;;
18170;SDS011;9210;48.358;10.902;2022-09-17T10:25:22;3.97;;;1.20;;
18170;SDS011;9210;48.358;10.902;2022-09-17T10:27:51;5.40;;;1.30;;
18170;SDS011;9210;48.358;10.902;2022-09-17T10:30:20;4.10;;;1.27;;
18170;SDS011;9210;48.358;10.902;2022-09-17T10:33:14;6.77;;;1.47;;
18170;SDS011;9210;48.358;10.902;2022-09-17T10:35:53;3.77;;;1.10;;
18170;SDS011;9210;48.358;10.902;2022-09-17T10:38:30;3.07;;;1.50;;
18170;SDS011;9210;48.358;10.902;2022-09-17T10:41:15;6.07;;;1.23;;
18170;SDS011;9210;48.358;10.902;2022-09-17T10:43:44;4.37;;;1.40;;
18170;SDS011;9210;48.358;10.902;2022-09-17T10:46:13;7.13;;;1.40;;
18170;SDS011;9210;48.358;10.902;2022-09-17T10:48:43;8.77;;;1.80;;
18170;SDS011;9210;48.358;10.902;2022-09-17T10:51:18;5.50;;;1.70;;
18170;SDS011;9210;48.358;10.902;2022-09-17T10:54:08;5.93;;;1.50;;
18170;SDS011;9210;48.358;10.902;2022-09-17T10:56:43;4.30;;;1.60;;
18170;SDS011;9210;48.358;10.902;2022-09-17T11:01:58;4.90;;;1.27;;
18170;SDS011;9210;48.358;10.902;2022-09-17T11:04:38;3.97;;;1.20;;
18170;SDS011;9210;48.358;10.902;2022-09-17T11:09:55;10.03;;;1.30;;
18170;SDS011;9210;48.358;10.902;2022-09-17T11:12:39;3.83;;;1.17;;
18170;SDS011;9210;48.358;10.902;2022-09-17T11:15:11;3.60;;;1.00;;
18170;SDS011;9210;48.358;10.902;2022-09-17T11:17:45;7.20;;;1.27;;
18170;SDS011;9210;48.358;10.902;2022-09-17T11:20:21;5.63;;;1.40;;
18170;SDS011;9210;48.358;10.902;2022-09-17T11:22:55;5.50;;;1.20;;
18170;SDS011;9210;48.358;10.902;2022-09-17T11:25:30;3.50;;;1.07;;
18170;SDS011;9210;48.358;10.902;2022-09-17T11:28:03;5.03;;;1.20;;
18170;SDS011;9210;48.358;10.902;2022-09-17T11:30:37;3.23;;;1.23;;
18170;SDS011;9210;48.358;10.902;2022-09-17T11:35:58;4.73;;;1.10;;
18170;SDS011;9210;48.358;10.902;2022-09-17T11:38:32;11.30;;;1.33;;
18170;SDS011;9210;48.358;10.902;2022-09-17T11:41:05;2.93;;;1.20;;
18170;SDS011;9210;48.358;10.902;2022-09-17T11:43:36;3.50;;;1.23;;
18170;SDS011;9210;48.358;10.902;2022-09-17T11:46:07;5.07;;;1.30;;
18170;SDS011;9210;48.358;10.902;2022-09-17T11:48:37;5.57;;;1.23;;
18170;SDS011;9210;48.358;10.902;2022-09-17T11:51:11;4.37;;;1.10;;
18170;SDS011;9210;48.358;10.902;2022-09-17T11:53:42;4.63;;;1.40;;
18170;SDS011;9210;48.358;10.902;2022-09-17T11:56:19;6.13;;;1.40;;
18170;SDS011;9210;48.358;10.902;2022-09-17T11:58:50;5.13;;;1.20;;
18170;SDS011;9210;48.358;10.902;2022-09-17T12:01:20;4.50;;;1.27;;
18170;SDS011;9210;48.358;10.902;2022-09-17T12:03:54;4.73;;;1.80;;
18170;SDS011;9210;48.358;10.902;2022-09-17T12:09:12;2.27;;;1.13;;
18170;SDS011;9210;48.358;10.902;2022-09-17T12:11:45;2.70;;;1.10;;
18170;SDS011;9210;48.358;10.902;2022-09-17T12:14:17;5.30;;;1.57;;
18170;SDS011;9210;48.358;10.902;2022-09-17T12:16:48;6.33;;;1.40;;
18170;SDS011;9210;48.358;10.902;2022-09-17T12:19:19;7.17;;;1.43;;
18170;SDS011;9210;48.358;10.902;2022-09-17T12:21:50;3.30;;;1.40;;
18170;SDS011;9210;48.358;10.902;2022-09-17T12:24:20;8.20;;;1.57;;
18170;SDS011;9210;48.358;10.902;2022-09-17T12:27:11;7.73;;;1.50;;
18170;SDS011;9210;48.358;10.902;2022-09-17T12:30:04;5.13;;;1.43;;
18170;SDS011;9210;48.358;10.902;2022-09-17T12:32:39;5.67;;;1.47;;
18170;SDS011;9210;48.358;10.902;2022-09-17T12:35:13;6.13;;;1.30;;
18170;SDS011;9210;48.358;10.902;2022-09-17T12:37:47;5.87;;;1.30;;
18170;SDS011;9210;48.358;10.902;2022-09-17T12:40:24;4.97;;;1.60;;
18170;SDS011;9210;48.358;10.902;2022-09-17T12:43:05;5.77;;;1.40;;
18170;SDS011;9210;48.358;10.902;2022-09-17T12:45:43;5.43;;;1.07;;
18170;SDS011;9210;48.358;10.902;2022-09-17T12:51:02;3.10;;;1.00;;
18170;SDS011;9210;48.358;10.902;2022-09-17T12:53:35;3.27;;;0.80;;
18170;SDS011;9210;48.358;10.902;2022-09-17T12:56:05;2.93;;;0.90;;
18170;SDS011;9210;48.358;10.902;2022-09-17T12:58:56;3.20;;;0.70;;
18170;SDS011;9210;48.358;10.902;2022-09-17T13:01:29;0.90;;;0.50;;
18170;SDS011;9210;48.358;10.902;2022-09-17T13:04:07;0.60;;;0.50;;
18170;SDS011;9210;48.358;10.902;2022-09-17T13:06:56;4.07;;;0.90;;
18170;SDS011;9210;48.358;10.902;2022-09-17T13:12:29;4.00;;;0.90;;
18170;SDS011;9210;48.358;10.902;2022-09-17T13:15:14;4.10;;;1.37;;
18170;SDS011;9210;48.358;10.902;2022-09-17T13:17:50;4.70;;;0.90;;
18170;SDS011;9210;48.358;10.902;2022-09-17T13:20:39;3.87;;;1.10;;
18170;SDS011;9210;48.358;10.902;2022-09-17T13:23:10;2.90;;;0.80;;
18170;SDS011;9210;48.358;10.902;2022-09-17T13:25:48;3.17;;;1.00;;
18170;SDS011;9210;48.358;10.902;2022-09-17T13:28:17;3.40;;;1.07;;
18170;SDS011;9210;48.358;10.902;2022-09-17T13:30:56;4.97;;;1.17;;
18170;SDS011;9210;48.358;10.902;2022-09-17T13:38:56;4.03;;;1.20;;
18170;SDS011;9210;48.358;10.902;2022-09-17T13:41:25;3.27;;;1.00;;
18170;SDS011;9210;48.358;10.902;2022-09-17T13:43:54;4.10;;;1.00;;
18170;SDS011;9210;48.358;10.902;2022-09-17T13:46:24;4.10;;;1.00;;
18170;SDS011;9210;48.358;10.902;2022-09-17T13:48:55;6.60;;;1.10;;
18170;SDS011;9210;48.358;10.902;2022-09-17T13:54:11;4.13;;;1.20;;
18170;SDS011;9210;48.358;10.902;2022-09-17T13:56:41;4.50;;;1.10;;
18170;SDS011;9210;48.358;10.902;2022-09-17T13:59:12;4.30;;;1.43;;
18170;SDS011;9210;48.358;10.902;2022-09-17T14:01:57;3.40;;;1.00;;
18170;SDS011;9210;48.358;10.902;2022-09-17T14:04:33;2.53;;;0.90;;
18170;SDS011;9210;48.358;10.902;2022-09-17T14:09:52;3.63;;;0.73;;
18170;SDS011;9210;48.358;10.902;2022-09-17T14:12:47;4.27;;;0.70;;
18170;SDS011;9210;48.358;10.902;2022-09-17T14:15:34;2.80;;;0.70;;
18170;SDS011;9210;48.358;10.902;2022-09-17T14:20:49;0.97;;;0.50;;
18170;SDS011;9210;48.358;10.902;2022-09-17T14:23:18;1.63;;;0.60;;
18170;SDS011;9210;48.358;10.902;2022-09-17T14:25:48;1.77;;;0.67;;
18170;SDS011;9210;48.358;10.902;2022-09-17T14:28:20;3.90;;;0.97;;
18170;SDS011;9210;48.358;10.902;2022-09-17T14:30:51;2.03;;;0.77;;
18170;SDS011;9210;48.358;10.902;2022-09-17T14:33:21;0.90;;;0.70;;
18170;SDS011;9210;48.358;10.902;2022-09-17T14:35:53;1.00;;;0.70;;
18170;SDS011;9210;48.358;10.902;2022-09-17T14:38:24;1.90;;;0.60;;
18170;SDS011;9210;48.358;10.902;2022-09-17T14:40:56;2.37;;;0.73;;
18170;SDS011;9210;48.358;10.902;2022-09-17T14:43:29;0.93;;;0.60;;
18170;SDS011;9210;48.358;10.902;2022-09-17T14:46:00;1.87;;;0.70;;
18170;SDS011;9210;48.358;10.902;2022-09-17T14:48:31;2.83;;;0.83;;
18170;SDS011;9210;48.358;10.902;2022-09-17T14:54:11;2.17;;;0.70;;
18170;SDS011;9210;48.358;10.902;2022-09-17T14:56:44;1.30;;;0.80;;
18170;SDS011;9210;48.358;10.902;2022-09-17T14:59:16;2.97;;;1.00;;
18170;SDS011;9210;48.358;10.902;2022-09-17T15:01:46;1.67;;;0.80;;
18170;SDS011;9210;48.358;10.902;2022-09-17T15:04:25;5.97;;;0.90;;
18170;SDS011;9210;48.358;10.902;2022-09-17T15:07:04;2.30;;;0.90;;
18170;SDS011;9210;48.358;10.902;2022-09-17T15:09:35;2.47;;;0.80;;
18170;SDS011;9210;48.358;10.902;2022-09-17T15:12:03;1.97;;;0.90;;
18170;SDS011;9210;48.358;10.902;2022-09-17T15:14:33;1.60;;;0.80;;
18170;SDS011;9210;48.358;10.902;2022-09-17T15:17:04;2.47;;;0.90;;
18170;SDS011;9210;48.358;10.902;2022-09-17T15:19:35;3.87;;;1.10;;
18170;SDS011;9210;48.358;10.902;2022-09-17T15:22:04;8.43;;;1.10;;
18170;SDS011;9210;48.358;10.902;2022-09-17T15:24:37;3.10;;;1.20;;
18170;SDS011;9210;48.358;10.902;2022-09-17T15:27:08;3.33;;;1.10;;
18170;SDS011;9210;48.358;10.902;2022-09-17T15:29:38;4.77;;;1.40;;
18170;SDS011;9210;48.358;10.902;2022-09-17T15:32:08;2.30;;;1.00;;
18170;SDS011;9210;48.358;10.902;2022-09-17T15:34:39;4.00;;;1.00;;
18170;SDS011;9210;48.358;10.902;2022-09-17T15:37:15;6.13;;;1.30;;
18170;SDS011;9210;48.358;10.902;2022-09-17T15:39:47;2.57;;;1.00;;
18170;SDS011;9210;48.358;10.902;2022-09-17T15:42:18;3.70;;;0.90;;
18170;SDS011;9210;48.358;10.902;2022-09-17T15:44:47;2.80;;;1.03;;
18170;SDS011;9210;48.358;10.902;2022-09-17T15:47:49;1.10;;;0.90;;
18170;SDS011;9210;48.358;10.902;2022-09-17T15:50:19;3.17;;;1.13;;
18170;SDS011;9210;48.358;10.902;2022-09-17T15:52:48;2.23;;;0.90;;
18170;SDS011;9210;48.358;10.902;2022-09-17T15:55:28;3.77;;;1.00;;
18170;SDS011;9210;48.358;10.902;2022-09-17T15:57:57;4.10;;;0.80;;
18170;SDS011;9210;48.358;10.902;2022-09-17T16:00:26;1.57;;;0.80;;
18170;SDS011;9210;48.358;10.902;2022-09-17T16:02:54;1.50;;;1.00;;
18170;SDS011;9210;48.358;10.902;2022-09-17T16:08:22;1.33;;;1.00;;